createdAt,value
2018-11-10T00:00:21.404Z,11.90
2018-11-10T00:02:50.075Z,11.70
2018-11-10T00:05:19.189Z,11.90
2018-11-10T00:07:47.549Z,11.60
2018-11-10T00:10:16.274Z,11.30
2018-11-10T00:12:44.774Z,11.40
2018-11-10T00:15:13.558Z,11.20
2018-11-10T00:17:41.638Z,11.50
2018-11-10T00:20:10.254Z,11.20
2018-11-10T00:22:39.515Z,11.50
2018-11-10T00:25:09.740Z,11.50
2018-11-10T00:27:37.953Z,11.20
2018-11-10T00:30:08.557Z,10.60
2018-11-10T00:32:36.948Z,10.80
2018-11-10T00:35:05.343Z,10.80
2018-11-10T00:37:33.564Z,10.80
2018-11-10T00:40:01.785Z,10.90
2018-11-10T00:42:30.090Z,10.80
2018-11-10T00:44:58.292Z,10.70
2018-11-10T00:47:26.440Z,10.70
2018-11-10T00:49:54.797Z,10.80
2018-11-10T00:52:22.987Z,10.90
2018-11-10T00:54:51.111Z,10.70
2018-11-10T00:57:19.241Z,10.80
2018-11-10T00:59:47.348Z,10.70
2018-11-10T01:02:15.408Z,10.70
2018-11-10T01:04:43.508Z,10.80
2018-11-10T01:07:11.676Z,11.00
2018-11-10T01:09:40.098Z,11.10
2018-11-10T01:12:13.178Z,10.90
2018-11-10T01:14:41.291Z,10.50
2018-11-10T01:17:09.522Z,10.80
2018-11-10T01:19:37.763Z,10.80
2018-11-10T01:22:06.556Z,10.60
2018-11-10T01:24:34.612Z,10.60
2018-11-10T01:27:02.773Z,10.90
2018-11-10T01:29:31.475Z,10.60
2018-11-10T01:31:59.608Z,10.60
2018-11-10T01:34:27.700Z,10.70
2018-11-10T01:36:55.786Z,10.40
2018-11-10T01:39:23.844Z,10.70
2018-11-10T01:41:52.120Z,10.50
2018-11-10T01:44:20.211Z,10.80
2018-11-10T01:46:48.331Z,10.50
2018-11-10T01:49:16.427Z,10.70
2018-11-10T01:51:44.490Z,10.50
2018-11-10T01:54:12.549Z,10.60
2018-11-10T01:56:40.664Z,10.70
2018-11-10T01:59:08.803Z,10.70
2018-11-10T02:01:36.864Z,10.70
2018-11-10T02:04:05.358Z,10.70
2018-11-10T02:06:33.449Z,10.70
2018-11-10T02:09:01.516Z,10.70
2018-11-10T02:11:29.541Z,10.70
2018-11-10T02:13:57.719Z,10.50
2018-11-10T02:16:25.841Z,10.30
2018-11-10T02:18:53.922Z,10.90
2018-11-10T02:21:22.108Z,10.40
2018-11-10T02:23:51.244Z,11.00
2018-11-10T02:26:19.408Z,10.90
2018-11-10T02:28:47.500Z,11.00
2018-11-10T02:31:15.588Z,11.10
2018-11-10T02:33:43.725Z,11.10
2018-11-10T02:36:11.810Z,11.30
2018-11-10T02:38:39.900Z,11.20
2018-11-10T02:41:08.124Z,10.90
2018-11-10T02:43:36.149Z,11.10
2018-11-10T02:46:04.251Z,11.20
2018-11-10T02:48:32.302Z,11.60
2018-11-10T02:51:00.332Z,11.50
2018-11-10T02:53:28.501Z,10.90
2018-11-10T02:55:56.582Z,11.30
2018-11-10T02:58:24.704Z,11.30
2018-11-10T03:00:52.774Z,11.30
2018-11-10T03:03:20.791Z,10.90
2018-11-10T03:05:48.927Z,10.90
2018-11-10T03:08:17.061Z,11.00
2018-11-10T03:10:45.154Z,11.00
2018-11-10T03:13:13.260Z,11.10
2018-11-10T03:15:41.319Z,11.30
2018-11-10T03:18:09.412Z,11.30
2018-11-10T03:20:37.508Z,11.40
2018-11-10T03:23:05.780Z,11.30
2018-11-10T03:25:34.015Z,11.00
2018-11-10T03:28:02.175Z,11.30
2018-11-10T03:30:30.329Z,11.30
2018-11-10T03:32:58.451Z,10.80
2018-11-10T03:35:26.509Z,11.30
2018-11-10T03:37:54.636Z,11.60
2018-11-10T03:40:22.693Z,11.30
2018-11-10T03:42:50.875Z,11.70
2018-11-10T03:45:18.919Z,11.60
2018-11-10T03:47:47.009Z,11.20
2018-11-10T03:50:15.073Z,11.40
2018-11-10T03:52:43.251Z,11.40
2018-11-10T03:55:11.278Z,11.40
2018-11-10T03:57:39.397Z,11.20
2018-11-10T04:00:14.655Z,11.50
2018-11-10T04:02:43.789Z,11.30
2018-11-10T04:05:12.498Z,11.70
2018-11-10T04:07:43.254Z,11.90
2018-11-10T04:10:12.065Z,11.90
2018-11-10T04:12:40.185Z,12.00
2018-11-10T04:15:08.354Z,12.00
2018-11-10T04:17:36.667Z,11.50
2018-11-10T04:20:06.548Z,11.50
2018-11-10T04:22:35.692Z,11.60
2018-11-10T04:25:05.337Z,11.70
2018-11-10T04:27:33.757Z,11.90
2018-11-10T04:30:02.755Z,11.60
2018-11-10T04:32:30.943Z,11.40
2018-11-10T04:34:59.013Z,11.60
2018-11-10T04:37:27.150Z,11.70
2018-11-10T04:39:55.671Z,11.60
2018-11-10T04:42:23.728Z,11.70
2018-11-10T04:44:51.798Z,11.60
2018-11-10T04:47:19.888Z,11.60
2018-11-10T04:49:47.957Z,11.50
2018-11-10T04:52:16.011Z,11.60
2018-11-10T04:54:44.092Z,11.50
2018-11-10T04:57:12.128Z,11.60
2018-11-10T04:59:40.176Z,11.60
2018-11-10T05:02:08.258Z,11.40
2018-11-10T05:04:36.363Z,11.70
2018-11-10T05:07:04.714Z,11.90
2018-11-10T05:09:32.878Z,11.70
2018-11-10T05:12:00.948Z,11.70
2018-11-10T05:14:29.028Z,12.00
2018-11-10T05:16:57.156Z,11.70
2018-11-10T05:19:25.532Z,11.70
2018-11-10T05:21:54.332Z,11.70
2018-11-10T05:24:22.459Z,11.90
2018-11-10T05:26:50.529Z,12.10
2018-11-10T05:29:18.659Z,12.00
2018-11-10T05:31:46.694Z,11.70
2018-11-10T05:34:14.974Z,11.80
2018-11-10T05:36:43.055Z,11.50
2018-11-10T05:39:11.207Z,11.50
2018-11-10T05:41:39.465Z,11.80
2018-11-10T05:44:07.506Z,11.70
2018-11-10T05:46:35.646Z,11.70
2018-11-10T05:49:03.785Z,12.00
2018-11-10T05:51:31.962Z,12.00
2018-11-10T05:54:00.017Z,12.10
2018-11-10T05:56:28.090Z,11.90
2018-11-10T05:58:56.191Z,11.90
2018-11-10T06:01:24.250Z,11.60
2018-11-10T06:03:52.345Z,11.70
2018-11-10T06:06:20.492Z,11.90
2018-11-10T06:08:48.579Z,11.70
2018-11-10T06:11:16.694Z,11.70
2018-11-10T06:13:44.833Z,11.70
2018-11-10T06:16:12.965Z,11.40
2018-11-10T06:18:41.118Z,11.20
2018-11-10T06:21:09.268Z,11.10
2018-11-10T06:23:37.389Z,10.80
2018-11-10T06:26:05.700Z,10.50
2018-11-10T06:28:33.766Z,10.50
2018-11-10T06:31:02.008Z,10.80
2018-11-10T06:33:30.153Z,10.40
2018-11-10T06:35:58.393Z,10.50
2018-11-10T06:38:26.554Z,10.50
2018-11-10T06:40:54.662Z,10.40
2018-11-10T06:43:22.855Z,10.80
2018-11-10T06:45:51.009Z,10.40
2018-11-10T06:48:19.179Z,10.30
2018-11-10T06:50:47.356Z,10.60
2018-11-10T06:53:15.482Z,10.60
2018-11-10T06:55:43.570Z,10.50
2018-11-10T06:58:11.661Z,10.70
2018-11-10T07:00:39.744Z,10.50
2018-11-10T07:03:07.894Z,10.60
2018-11-10T07:05:36.042Z,10.80
2018-11-10T07:08:04.209Z,10.60
2018-11-10T07:10:32.381Z,10.10
2018-11-10T07:13:00.513Z,10.30
2018-11-10T07:15:29.628Z,10.20
2018-11-10T07:17:57.841Z,10.30
2018-11-10T07:20:25.905Z,10.70
2018-11-10T07:22:54.000Z,10.80
2018-11-10T07:25:22.246Z,10.70
2018-11-10T07:27:50.430Z,10.70
2018-11-10T07:30:18.709Z,10.70
2018-11-10T07:32:46.882Z,10.70
2018-11-10T07:35:15.057Z,10.70
2018-11-10T07:37:43.172Z,10.60
2018-11-10T07:40:12.229Z,10.90
2018-11-10T07:42:40.472Z,10.90
2018-11-10T07:45:10.960Z,11.10
2018-11-10T07:47:39.148Z,11.50
2018-11-10T07:50:08.109Z,10.90
2018-11-10T07:52:36.204Z,11.20
2018-11-10T07:55:08.035Z,10.80
2018-11-10T07:57:36.131Z,10.90
2018-11-10T08:00:07.375Z,11.00
2018-11-10T08:02:35.500Z,11.10
2018-11-10T08:05:03.754Z,11.30
2018-11-10T08:07:31.877Z,11.30
2018-11-10T08:10:00.146Z,11.50
2018-11-10T08:12:28.309Z,11.20
2018-11-10T08:14:56.517Z,11.00
2018-11-10T08:17:24.705Z,11.30
2018-11-10T08:19:52.851Z,12.20
2018-11-10T08:22:21.001Z,12.20
2018-11-10T08:24:49.317Z,12.00
2018-11-10T08:27:17.392Z,11.40
2018-11-10T08:29:45.538Z,11.40
2018-11-10T08:32:13.824Z,11.80
2018-11-10T08:34:41.957Z,12.10
2018-11-10T08:37:10.060Z,11.90
2018-11-10T08:39:38.283Z,11.30
2018-11-10T08:42:06.510Z,12.00
2018-11-10T08:44:34.728Z,11.70
2018-11-10T08:47:03.226Z,11.40
2018-11-10T08:49:31.428Z,11.90
2018-11-10T08:51:59.776Z,11.80
2018-11-10T08:54:27.900Z,11.70
2018-11-10T08:56:56.183Z,11.60
2018-11-10T08:59:24.334Z,12.30
2018-11-10T09:01:52.610Z,12.40
2018-11-10T09:04:20.765Z,12.50
2018-11-10T09:06:48.890Z,12.20
2018-11-10T09:09:17.123Z,11.80
2018-11-10T09:11:45.272Z,12.00
2018-11-10T09:14:13.376Z,12.30
2018-11-10T09:16:41.499Z,12.50
2018-11-10T09:19:09.597Z,12.60
2018-11-10T09:21:37.862Z,12.80
2018-11-10T09:24:06.760Z,13.00
2018-11-10T09:26:35.129Z,12.10
2018-11-10T09:29:03.631Z,12.30
2018-11-10T09:31:31.787Z,12.50
2018-11-10T09:34:00.036Z,12.90
2018-11-10T09:36:28.612Z,12.90
2018-11-10T09:38:57.714Z,13.20
2018-11-10T09:41:27.182Z,13.10
2018-11-10T09:43:55.498Z,13.50
2018-11-10T09:46:23.938Z,13.80
2018-11-10T09:48:52.891Z,14.10
2018-11-10T09:51:21.959Z,14.00
2018-11-10T09:53:50.175Z,14.40
2018-11-10T09:56:18.490Z,13.70
2018-11-10T09:58:46.803Z,14.10
2018-11-10T10:01:15.140Z,14.40
2018-11-10T10:03:44.169Z,14.70
2018-11-10T10:06:12.614Z,14.50
2018-11-10T10:08:41.289Z,14.20
2018-11-10T10:11:09.810Z,14.50
2018-11-10T10:13:38.132Z,13.90
2018-11-10T10:16:06.975Z,14.00
2018-11-10T10:18:35.138Z,14.40
2018-11-10T10:21:03.632Z,14.00
2018-11-10T10:23:31.807Z,14.60
2018-11-10T10:26:00.212Z,15.20
2018-11-10T10:28:28.652Z,15.00
2018-11-10T10:30:57.229Z,15.30
2018-11-10T10:33:25.512Z,15.10
2018-11-10T10:35:53.803Z,15.10
2018-11-10T10:38:22.037Z,15.30
2018-11-10T10:40:50.454Z,15.10
2018-11-10T10:43:18.783Z,15.10
2018-11-10T10:45:47.264Z,15.40
2018-11-10T10:48:15.535Z,15.50
2018-11-10T10:50:43.796Z,15.20
2018-11-10T10:53:12.733Z,15.20
2018-11-10T10:55:41.263Z,15.30
2018-11-10T10:58:09.529Z,15.50
2018-11-10T11:00:43.364Z,15.50
2018-11-10T11:03:17.457Z,15.60
2018-11-10T11:05:51.622Z,15.90
2018-11-10T11:08:20.026Z,16.20
2018-11-10T11:10:48.407Z,16.40
2018-11-10T11:13:16.991Z,16.30
2018-11-10T11:15:45.647Z,16.20
2018-11-10T11:18:14.317Z,16.50
2018-11-10T11:20:42.776Z,16.50
2018-11-10T11:23:11.143Z,15.80
2018-11-10T11:25:39.963Z,16.20
2018-11-10T11:28:09.592Z,16.10
2018-11-10T11:30:38.651Z,16.30
2018-11-10T11:33:07.388Z,16.00
2018-11-10T11:35:36.100Z,16.00
2018-11-10T11:38:04.927Z,15.40
2018-11-10T11:40:34.282Z,15.90
2018-11-10T11:43:02.741Z,15.90
2018-11-10T11:45:31.012Z,15.90
2018-11-10T11:47:59.368Z,15.80
2018-11-10T11:50:27.660Z,15.90
2018-11-10T11:52:55.863Z,15.80
2018-11-10T11:55:24.275Z,16.00
2018-11-10T11:57:54.161Z,15.60
2018-11-10T12:00:22.413Z,15.60
2018-11-10T12:02:51.862Z,15.90
2018-11-10T12:05:20.333Z,16.10
2018-11-10T12:07:48.827Z,16.60
2018-11-10T12:10:17.261Z,16.20
2018-11-10T12:12:45.646Z,15.40
2018-11-10T12:15:15.712Z,16.00
2018-11-10T12:17:44.536Z,16.60
2018-11-10T12:22:53.401Z,16.80
2018-11-10T12:25:22.552Z,16.60
2018-11-10T12:27:50.920Z,17.00
2018-11-10T12:30:19.266Z,16.70
2018-11-10T12:32:47.547Z,16.60
2018-11-10T12:35:17.031Z,16.60
2018-11-10T12:37:45.438Z,16.80
2018-11-10T12:40:14.001Z,16.80
2018-11-10T12:42:42.609Z,16.60
2018-11-10T12:45:12.061Z,16.70
2018-11-10T12:47:41.116Z,16.80
2018-11-10T12:50:12.049Z,16.80
2018-11-10T12:52:42.032Z,17.00
2018-11-10T12:55:11.609Z,16.80
2018-11-10T12:57:40.936Z,17.10
2018-11-10T13:00:11.198Z,17.00
2018-11-10T13:02:40.231Z,16.60
2018-11-10T13:05:09.971Z,17.10
2018-11-10T13:07:39.679Z,16.30
2018-11-10T13:10:09.033Z,17.00
2018-11-10T13:12:37.847Z,17.10
2018-11-10T13:15:06.855Z,17.20
2018-11-10T13:17:35.258Z,17.20
2018-11-10T13:20:04.642Z,17.20
2018-11-10T13:22:33.006Z,17.00
2018-11-10T13:25:02.207Z,16.60
2018-11-10T13:27:30.554Z,16.40
2018-11-10T13:29:58.829Z,16.30
2018-11-10T13:32:27.233Z,16.40
2018-11-10T13:34:55.533Z,16.40
2018-11-10T13:37:23.906Z,16.60
2018-11-10T13:39:52.325Z,15.90
2018-11-10T13:42:20.706Z,15.40
2018-11-10T13:44:49.666Z,16.10
2018-11-10T13:47:17.922Z,15.70
2018-11-10T13:49:46.842Z,15.80
2018-11-10T13:52:15.387Z,15.60
2018-11-10T13:54:43.701Z,15.90
2018-11-10T13:57:11.914Z,15.70
2018-11-10T13:59:41.054Z,16.50
2018-11-10T14:02:09.449Z,15.80
2018-11-10T14:04:37.719Z,16.00
2018-11-10T14:07:06.167Z,16.30
2018-11-10T14:09:34.469Z,16.40
2018-11-10T14:12:02.910Z,16.40
2018-11-10T14:14:31.300Z,15.90
2018-11-10T14:16:59.980Z,15.60
2018-11-10T14:19:28.593Z,16.10
2018-11-10T14:21:57.039Z,16.10
2018-11-10T14:24:26.509Z,15.80
2018-11-10T14:26:54.951Z,15.90
2018-11-10T14:29:23.420Z,16.00
2018-11-10T14:31:51.610Z,15.60
2018-11-10T14:34:19.951Z,15.60
2018-11-10T14:36:48.450Z,15.40
2018-11-10T14:39:16.865Z,15.60
2018-11-10T14:41:45.230Z,15.40
2018-11-10T14:44:13.972Z,15.50
2018-11-10T14:46:42.585Z,15.50
2018-11-10T14:49:11.223Z,15.20
2018-11-10T14:51:39.613Z,15.10
2018-11-10T14:54:07.965Z,15.00
2018-11-10T14:56:36.244Z,15.10
2018-11-10T14:59:04.548Z,14.90
2018-11-10T15:01:32.813Z,15.10
2018-11-10T15:04:01.229Z,15.00
2018-11-10T15:06:29.590Z,14.90
2018-11-10T15:08:58.151Z,14.80
2018-11-10T15:11:26.930Z,14.80
2018-11-10T15:13:55.497Z,14.80
2018-11-10T15:19:10.213Z,14.60
2018-11-10T15:21:39.086Z,14.50
2018-11-10T15:24:07.516Z,14.30
2018-11-10T15:26:37.039Z,14.50
2018-11-10T15:29:05.834Z,14.60
2018-11-10T15:31:34.155Z,14.50
2018-11-10T15:34:02.791Z,14.30
2018-11-10T15:36:31.353Z,14.30
2018-11-10T15:38:59.833Z,14.40
2018-11-10T15:41:28.412Z,14.30
2018-11-10T15:43:56.672Z,14.30
2018-11-10T15:46:24.963Z,14.20
2018-11-10T15:48:53.532Z,14.20
2018-11-10T15:51:22.093Z,14.30
2018-11-10T15:53:50.414Z,14.40
2018-11-10T15:56:18.795Z,14.50
2018-11-10T15:58:47.726Z,14.30
2018-11-10T16:01:16.229Z,14.20
2018-11-10T16:03:44.440Z,14.60
2018-11-10T16:06:12.823Z,14.70
2018-11-10T16:08:41.181Z,14.70
2018-11-10T16:11:09.314Z,14.70
2018-11-10T16:13:37.919Z,14.60
2018-11-10T16:16:06.174Z,14.40
2018-11-10T16:18:34.427Z,14.50
2018-11-10T16:21:02.816Z,14.40
2018-11-10T16:23:30.954Z,14.20
2018-11-10T16:25:59.169Z,14.50
2018-11-10T16:28:28.480Z,14.40
2018-11-10T16:30:56.820Z,14.40
2018-11-10T16:33:25.176Z,14.50
2018-11-10T16:35:54.021Z,14.70
2018-11-10T16:38:22.302Z,14.60
2018-11-10T16:40:50.651Z,14.50
2018-11-10T16:43:18.908Z,14.60
2018-11-10T16:45:47.381Z,14.40
2018-11-10T16:48:15.786Z,14.40
2018-11-10T16:50:44.231Z,14.60
2018-11-10T16:53:12.698Z,14.40
2018-11-10T16:55:41.019Z,14.50
2018-11-10T16:58:09.198Z,14.40
2018-11-10T17:00:38.177Z,14.30
2018-11-10T17:03:06.400Z,14.30
2018-11-10T17:05:34.960Z,14.50
2018-11-10T17:08:04.169Z,14.50
2018-11-10T17:10:32.606Z,14.60
2018-11-10T17:13:01.262Z,14.60
2018-11-10T17:15:29.803Z,14.50
2018-11-10T17:17:58.615Z,14.60
2018-11-10T17:20:27.140Z,14.60
2018-11-10T17:22:57.993Z,14.60
2018-11-10T17:25:27.003Z,14.60
2018-11-10T17:27:55.238Z,14.40
2018-11-10T17:30:23.592Z,14.50
2018-11-10T17:32:51.798Z,14.30
2018-11-10T17:35:20.191Z,14.40
2018-11-10T17:37:48.628Z,14.10
2018-11-10T17:40:17.406Z,14.40
2018-11-10T17:42:45.873Z,14.40
2018-11-10T17:45:18.283Z,14.40
2018-11-10T17:47:46.746Z,14.50
2018-11-10T18:11:32.667Z,14.70
2018-11-10T18:14:01.331Z,14.80
2018-11-10T18:16:29.876Z,14.70
2018-11-10T18:18:58.426Z,14.90
2018-11-10T18:21:26.826Z,14.70
2018-11-10T18:23:55.482Z,14.60
2018-11-10T18:26:23.835Z,14.80
2018-11-10T18:28:52.138Z,14.70
2018-11-10T18:31:20.551Z,14.90
2018-11-10T18:33:48.915Z,14.30
2018-11-10T18:36:17.617Z,14.80
2018-11-10T18:38:45.972Z,14.60
2018-11-10T18:41:14.375Z,14.80
2018-11-10T18:43:42.817Z,14.70
2018-11-10T18:46:11.186Z,14.70
2018-11-10T18:48:39.871Z,14.70
2018-11-10T18:51:08.191Z,14.70
2018-11-10T18:53:36.545Z,14.80
2018-11-10T18:56:05.022Z,14.60
2018-11-10T18:58:33.416Z,14.50
2018-11-10T19:01:01.857Z,14.40
2018-11-10T19:03:30.124Z,14.30
2018-11-10T19:05:58.594Z,14.30
2018-11-10T19:08:26.969Z,14.00
2018-11-10T19:10:55.421Z,14.00
2018-11-10T19:13:24.871Z,13.90
2018-11-10T19:15:53.312Z,14.00
2018-11-10T19:18:22.684Z,14.10
2018-11-10T19:20:51.062Z,14.00
2018-11-10T19:23:19.469Z,14.00
2018-11-10T19:25:47.713Z,14.00
2018-11-10T19:28:16.105Z,14.10
2018-11-10T19:30:44.469Z,14.10
2018-11-10T19:33:13.421Z,14.30
2018-11-10T19:35:42.096Z,14.20
2018-11-10T19:38:10.787Z,14.20
2018-11-10T19:40:39.303Z,14.20
2018-11-10T19:43:08.030Z,14.20
2018-11-10T19:45:36.786Z,14.20
2018-11-10T19:48:05.700Z,14.10
2018-11-10T19:50:34.420Z,14.10
2018-11-10T19:53:02.983Z,14.10
2018-11-10T19:55:31.264Z,14.00
2018-11-10T19:58:00.053Z,14.00
2018-11-10T20:00:28.528Z,14.00
2018-11-10T20:02:56.938Z,14.10
2018-11-10T20:05:25.306Z,14.20
2018-11-10T20:07:53.701Z,14.20
2018-11-10T20:10:22.161Z,14.40
2018-11-10T20:12:50.590Z,14.40
2018-11-10T20:15:19.423Z,14.40
2018-11-10T20:17:48.235Z,13.90
2018-11-10T20:20:17.628Z,14.00
2018-11-10T20:22:45.977Z,13.90
2018-11-10T20:25:17.563Z,14.00
2018-11-10T20:27:46.270Z,14.20
2018-11-10T20:30:16.201Z,14.20
2018-11-10T20:32:45.460Z,14.30
2018-11-10T20:35:14.253Z,14.10
2018-11-10T20:37:43.413Z,14.20
2018-11-10T20:40:13.437Z,14.10
2018-11-10T20:42:42.023Z,14.20
2018-11-10T20:45:13.286Z,14.20
2018-11-10T20:47:42.116Z,14.40
2018-11-10T20:50:11.108Z,14.40
2018-11-10T20:52:39.424Z,14.20
2018-11-10T20:55:09.301Z,14.10
2018-11-10T20:57:38.036Z,14.20
2018-11-10T21:00:12.587Z,14.30
2018-11-10T21:02:41.854Z,14.20
2018-11-10T21:05:11.356Z,14.30
2018-11-10T21:07:39.991Z,14.40
2018-11-10T21:10:11.861Z,14.40
2018-11-10T21:12:40.797Z,14.60
2018-11-10T21:17:49.657Z,14.60
2018-11-10T21:20:17.963Z,14.60
2018-11-10T21:22:46.213Z,14.60
2018-11-10T21:25:16.242Z,14.40
2018-11-10T21:27:45.241Z,14.40
2018-11-10T21:30:15.074Z,14.20
2018-11-10T21:32:43.803Z,14.30
2018-11-10T21:35:12.215Z,14.30
2018-11-10T21:37:42.234Z,14.20
2018-11-10T21:40:13.887Z,14.20
2018-11-10T21:42:42.390Z,14.40
2018-11-10T21:45:11.899Z,14.40
2018-11-10T21:47:40.509Z,14.30
2018-11-10T21:50:11.660Z,14.40
2018-11-10T21:52:41.882Z,14.50
2018-11-10T21:55:11.738Z,14.40
2018-11-10T21:57:40.380Z,14.50
2018-11-10T22:00:12.036Z,14.60
2018-11-10T22:02:41.781Z,14.60
2018-11-10T22:05:10.564Z,14.60
2018-11-10T22:07:40.978Z,14.70
2018-11-10T22:10:11.873Z,14.40
2018-11-10T22:12:40.489Z,14.60
2018-11-10T22:15:11.695Z,14.40
2018-11-10T22:17:40.589Z,14.60
2018-11-10T22:20:10.711Z,14.50
2018-11-10T22:22:39.115Z,14.60
2018-11-10T22:25:08.558Z,14.40
2018-11-10T22:27:37.767Z,14.30
2018-11-10T22:30:09.305Z,14.30
2018-11-10T22:32:38.489Z,14.10
2018-11-10T22:35:07.886Z,14.40
2018-11-10T22:37:36.848Z,14.30
2018-11-10T22:40:07.260Z,13.90
2018-11-10T22:42:36.401Z,14.10
2018-11-10T22:45:05.245Z,14.00
2018-11-10T22:47:33.785Z,14.10
2018-11-10T22:50:02.002Z,13.90
2018-11-10T22:52:30.291Z,14.00
2018-11-10T22:54:58.493Z,14.10
2018-11-10T22:57:27.114Z,14.30
2018-11-10T22:59:55.329Z,14.30
2018-11-10T23:02:24.078Z,14.20
2018-11-10T23:04:52.332Z,14.20
2018-11-10T23:07:20.525Z,14.10
2018-11-10T23:09:48.670Z,13.90
2018-11-10T23:12:16.910Z,14.00
2018-11-10T23:14:45.210Z,14.00
2018-11-10T23:17:13.928Z,14.10
2018-11-10T23:19:42.273Z,14.20
2018-11-10T23:22:10.660Z,14.10
2018-11-10T23:24:38.784Z,14.00
2018-11-10T23:27:07.309Z,14.10
2018-11-10T23:29:35.796Z,13.80
2018-11-10T23:32:04.600Z,14.00
2018-11-10T23:34:32.847Z,14.10
2018-11-10T23:37:01.451Z,14.00
2018-11-10T23:39:29.807Z,13.90
2018-11-10T23:41:58.017Z,14.10
2018-11-10T23:44:26.804Z,14.00
2018-11-10T23:46:55.009Z,13.90
2018-11-10T23:49:23.370Z,13.80
2018-11-10T23:51:51.901Z,13.70
2018-11-10T23:54:20.490Z,13.80
2018-11-10T23:56:48.710Z,13.70
2018-11-10T23:59:17.550Z,13.70
